PWSweather.com
Personal Weather Stations
Station Observations
KMICHEBO10
Cordwood Point, Lake Huron, Cheboygan, MI 49721

Cordwood Point, Lake HuronCheboygan, MI 49721

Lat: 45.663372, Lon: -84.3327789

Elevation: 598

Station Type: Davis Vantage Pro2 Wireless

https://www.lakehuronweather.org

High Low Average
Temperature 45.5°F7.5°C 30.6°F-0.8°C 39.3°F4.1°C
Dew Point 35.5°F1.9°C 26.7°F-2.9°C 31.4°F-0.3°C
Winds 6.9 mph 11.1 kmh Calm Calm 3.0 mph SW4.8 kmh SW
Wind Gusts 13.8 mph22.2 kmh -- 6.0 mph9.7 kmh
Humidity 87% 62% 73%
Pressure 30.08 in1018.6 mb 29.73 in1006.8 mb -
Precipitation 0.26 in6.6 mm - -
Hour Temp Dew Point Humidity Winds Wind Gusts Pressure Precip Precip Rate Daily Precip Total
12:00 AM 43.6°F6.4°C 34.8°F1.6°C 71% 1.2 mph SW1.9 kmh SW 2.3 mph3.7 kmh 29.83 in1010.2 mb - 0.01 in0.3 mm 0.28 in7.1 mm
12:10 AM 43.5°F6.4°C 34.4°F1.3°C 70% 3.5 mph SSW5.6 kmh SSW 3.5 mph5.6 kmh 29.82 in1009.8 mb - 0.01 in0.3 mm 0.28 in7.1 mm
12:20 AM 43.3°F6.3°C 34.2°F1.2°C 70% 3.5 mph S5.6 kmh S 5.8 mph9.3 kmh 29.82 in1009.8 mb - 0.01 in0.3 mm 0.29 in7.4 mm
12:30 AM 43.5°F6.4°C 34.0°F1.1°C 69% 2.3 mph S3.7 kmh S 5.8 mph9.3 kmh 29.82 in1009.8 mb - 0.00 in0.0 mm 0.29 in7.4 mm
12:40 AM 43.6°F6.4°C 33.7°F0.9°C 68% 1.2 mph SSW1.9 kmh SSW 3.5 mph5.6 kmh 29.82 in1009.8 mb - 0.01 in0.3 mm 0.30 in7.6 mm
12:50 AM 43.5°F6.4°C 33.6°F0.9°C 68% 1.2 mph S1.9 kmh S 3.5 mph5.6 kmh 29.81 in1009.5 mb - 0.00 in0.0 mm 0.30 in7.6 mm
01:00 AM 43.0°F6.1°C 33.5°F0.8°C 69% 3.5 mph S5.6 kmh S 5.8 mph9.3 kmh 29.81 in1009.5 mb - 0.01 in0.3 mm 0.05 in1.3 mm
01:10 AM 43.0°F6.1°C 33.2°F0.7°C 68% 2.3 mph SSW3.7 kmh SSW 5.8 mph9.3 kmh 29.80 in1009.1 mb - 0.00 in0.0 mm 0.05 in1.3 mm
01:20 AM 43.1°F6.2°C 32.9°F0.5°C 67% 2.3 mph S3.7 kmh S 6.9 mph11.1 kmh 29.80 in1009.1 mb - 0.01 in0.3 mm 0.01 in0.3 mm
01:30 AM 43.8°F6.6°C 32.8°F0.4°C 65% 4.6 mph S7.4 kmh S 5.8 mph9.3 kmh 29.79 in1008.8 mb - 0.00 in0.0 mm 0.01 in0.3 mm
01:40 AM 44.2°F6.8°C 32.8°F0.4°C 64% 2.3 mph SSE3.7 kmh SSE 3.5 mph5.6 kmh 29.79 in1008.8 mb - 0.01 in0.3 mm 0.02 in0.5 mm
01:50 AM 44.3°F6.8°C 32.9°F0.5°C 64% 2.3 mph SSE3.7 kmh SSE 5.8 mph9.3 kmh 29.78 in1008.5 mb - 0.00 in0.0 mm 0.02 in0.5 mm
02:00 AM 44.2°F6.8°C 32.8°F0.4°C 64% 2.3 mph SSE3.7 kmh SSE 3.5 mph5.6 kmh 29.78 in1008.5 mb - 0.01 in0.3 mm 0.03 in0.8 mm
02:10 AM 44.0°F6.7°C 32.6°F0.3°C 64% 1.2 mph SSE1.9 kmh SSE 4.6 mph7.4 kmh 29.77 in1008.1 mb - 0.00 in0.0 mm 0.03 in0.8 mm
02:20 AM 44.0°F6.7°C 32.6°F0.3°C 64% 2.3 mph S3.7 kmh S 5.8 mph9.3 kmh 29.77 in1008.1 mb - 0.01 in0.3 mm 0.04 in1.0 mm
02:30 AM 44.0°F6.7°C 32.6°F0.3°C 64% 1.2 mph SSE1.9 kmh SSE 3.5 mph5.6 kmh 29.76 in1007.8 mb - 0.00 in0.0 mm 0.04 in1.0 mm
02:40 AM 44.0°F6.7°C 32.6°F0.3°C 64% 2.3 mph SE3.7 kmh SE 3.5 mph5.6 kmh 29.76 in1007.8 mb - 0.00 in0.0 mm 0.04 in1.0 mm
02:50 AM 44.0°F6.7°C 32.6°F0.3°C 64% 2.3 mph SSE3.7 kmh SSE 5.8 mph9.3 kmh 29.76 in1007.8 mb - 0.01 in0.3 mm 0.05 in1.3 mm
03:00 AM 44.2°F6.8°C 32.4°F0.2°C 63% 1.2 mph SSE1.9 kmh SSE 2.3 mph3.7 kmh 29.76 in1007.8 mb - 0.00 in0.0 mm 0.05 in1.3 mm
03:10 AM 44.3°F6.8°C 32.9°F0.5°C 64% 2.3 mph S3.7 kmh S 2.3 mph3.7 kmh 29.76 in1007.8 mb - 0.01 in0.3 mm 0.06 in1.5 mm
03:20 AM 44.1°F6.7°C 32.7°F0.4°C 64% 2.3 mph S3.7 kmh S 3.5 mph5.6 kmh 29.76 in1007.8 mb - 0.00 in0.0 mm 0.06 in1.5 mm
03:30 AM 43.7°F6.5°C 32.7°F0.4°C 65% 1.2 mph S1.9 kmh S 1.2 mph1.9 kmh 29.75 in1007.5 mb - 0.01 in0.3 mm 0.07 in1.8 mm
03:40 AM 43.5°F6.4°C 32.5°F0.3°C 65% Calm Calm 2.3 mph3.7 kmh 29.75 in1007.5 mb - 0.00 in0.0 mm 0.07 in1.8 mm
03:50 AM 43.4°F6.3°C 32.4°F0.2°C 65% 1.2 mph S1.9 kmh S 3.5 mph5.6 kmh 29.75 in1007.5 mb - 0.01 in0.3 mm 0.08 in2.0 mm
04:00 AM 44.0°F6.7°C 32.6°F0.3°C 64% 2.3 mph S3.7 kmh S 9.2 mph14.8 kmh 29.74 in1007.1 mb - 0.00 in0.0 mm 0.08 in2.0 mm
04:10 AM 44.6°F7.0°C 32.7°F0.4°C 63% 6.9 mph S11.1 kmh S 9.2 mph14.8 kmh 29.74 in1007.1 mb - 0.00 in0.0 mm 0.08 in2.0 mm
04:20 AM 45.0°F7.2°C 32.7°F0.4°C 62% 5.8 mph SSW9.3 kmh SSW 5.8 mph9.3 kmh 29.74 in1007.1 mb - 0.01 in0.3 mm 0.09 in2.3 mm
04:30 AM 45.3°F7.4°C 33.0°F0.6°C 62% 2.3 mph S3.7 kmh S 5.8 mph9.3 kmh 29.74 in1007.1 mb - 0.01 in0.3 mm 0.10 in2.5 mm
04:40 AM 45.4°F7.4°C 33.5°F0.8°C 63% 5.8 mph SW9.3 kmh SW 6.9 mph11.1 kmh 29.74 in1007.1 mb - 0.00 in0.0 mm 0.10 in2.5 mm
04:50 AM 45.5°F7.5°C 33.2°F0.7°C 62% 1.2 mph SW1.9 kmh SW 4.6 mph7.4 kmh 29.73 in1006.8 mb - 0.01 in0.3 mm 0.11 in2.8 mm
05:00 AM 45.5°F7.5°C 33.6°F0.9°C 63% 2.3 mph S3.7 kmh S 10.4 mph16.7 kmh 29.73 in1006.8 mb - 0.00 in0.0 mm 0.11 in2.8 mm
05:10 AM 45.5°F7.5°C 33.6°F0.9°C 63% 3.5 mph S5.6 kmh S 4.6 mph7.4 kmh 29.74 in1007.1 mb - 0.01 in0.3 mm 0.12 in3.0 mm
05:20 AM 45.2°F7.3°C 33.7°F0.9°C 64% 1.2 mph SW1.9 kmh SW 4.6 mph7.4 kmh 29.74 in1007.1 mb - 0.00 in0.0 mm 0.12 in3.0 mm
05:30 AM 44.8°F7.1°C 33.7°F0.9°C 65% 3.5 mph SW5.6 kmh SW 6.9 mph11.1 kmh 29.74 in1007.1 mb - 0.01 in0.3 mm 0.13 in3.3 mm
05:40 AM 44.7°F7.1°C 33.7°F0.9°C 65% 2.3 mph S3.7 kmh S 6.9 mph11.1 kmh 29.73 in1006.8 mb - 0.00 in0.0 mm 0.13 in3.3 mm
05:50 AM 44.7°F7.1°C 34.0°F1.1°C 66% 2.3 mph SW3.7 kmh SW 3.5 mph5.6 kmh 29.73 in1006.8 mb - 0.01 in0.3 mm 0.14 in3.6 mm
06:00 AM 44.6°F7.0°C 33.9°F1.1°C 66% 3.5 mph S5.6 kmh S 5.8 mph9.3 kmh 29.73 in1006.8 mb - 0.00 in0.0 mm 0.14 in3.6 mm
06:10 AM 44.7°F7.1°C 34.4°F1.3°C 67% 3.5 mph SSW5.6 kmh SSW 5.8 mph9.3 kmh 29.73 in1006.8 mb - 0.00 in0.0 mm 0.14 in3.6 mm
06:20 AM 44.7°F7.1°C 34.4°F1.3°C 67% 3.5 mph SSW5.6 kmh SSW 5.8 mph9.3 kmh 29.73 in1006.8 mb - 0.01 in0.3 mm 0.15 in3.8 mm
06:30 AM 44.5°F6.9°C 34.6°F1.4°C 68% 4.6 mph SSW7.4 kmh SSW 10.4 mph16.7 kmh 29.74 in1007.1 mb - 0.00 in0.0 mm 0.15 in3.8 mm
06:40 AM 44.6°F7.0°C 34.7°F1.5°C 68% 1.2 mph SW1.9 kmh SW 2.3 mph3.7 kmh 29.74 in1007.1 mb - 0.01 in0.3 mm 0.16 in4.1 mm
06:50 AM 44.5°F6.9°C 34.6°F1.4°C 68% 2.3 mph SSW3.7 kmh SSW 4.6 mph7.4 kmh 29.74 in1007.1 mb - 0.00 in0.0 mm 0.16 in4.1 mm
07:00 AM 44.5°F6.9°C 34.6°F1.4°C 68% 3.5 mph SW5.6 kmh SW 10.4 mph16.7 kmh 29.74 in1007.1 mb - 0.00 in0.0 mm 0.16 in4.1 mm
07:10 AM 44.3°F6.8°C 34.8°F1.6°C 69% 4.6 mph SW7.4 kmh SW 8.1 mph13.0 kmh 29.74 in1007.1 mb - 0.01 in0.3 mm 0.17 in4.3 mm
07:20 AM 44.2°F6.8°C 34.7°F1.5°C 69% 2.3 mph SW3.7 kmh SW 4.6 mph7.4 kmh 29.74 in1007.1 mb - 0.00 in0.0 mm 0.17 in4.3 mm
07:30 AM 43.8°F6.6°C 34.6°F1.4°C 70% 2.3 mph SW3.7 kmh SW 2.3 mph3.7 kmh 29.74 in1007.1 mb - 0.01 in0.3 mm 0.18 in4.6 mm
07:40 AM 43.6°F6.4°C 34.8°F1.6°C 71% 1.2 mph NW1.9 kmh NW 1.2 mph1.9 kmh 29.74 in1007.1 mb - 0.00 in0.0 mm 0.18 in4.6 mm
07:50 AM 43.5°F6.4°C 34.7°F1.5°C 71% 2.3 mph S3.7 kmh S 3.5 mph5.6 kmh 29.74 in1007.1 mb - 0.00 in0.0 mm 0.18 in4.6 mm
08:00 AM 43.3°F6.3°C 34.5°F1.4°C 71% 2.3 mph SW3.7 kmh SW 5.8 mph9.3 kmh 29.74 in1007.1 mb - 0.00 in0.0 mm 0.18 in4.6 mm
08:10 AM 43.0°F6.1°C 34.6°F1.4°C 72% 3.5 mph WSW5.6 kmh WSW 5.8 mph9.3 kmh 29.75 in1007.5 mb - 0.01 in0.3 mm 0.19 in4.8 mm
08:20 AM 42.9°F6.1°C 34.9°F1.6°C 73% 2.3 mph SW3.7 kmh SW 6.9 mph11.1 kmh 29.75 in1007.5 mb - 0.00 in0.0 mm 0.19 in4.8 mm
08:30 AM 42.7°F5.9°C 35.0°F1.7°C 74% 3.5 mph W5.6 kmh W 6.9 mph11.1 kmh 29.75 in1007.5 mb - 0.00 in0.0 mm 0.19 in4.8 mm
08:40 AM 42.9°F6.1°C 35.2°F1.8°C 74% 4.6 mph SW7.4 kmh SW 9.2 mph14.8 kmh 29.75 in1007.5 mb - 0.01 in0.3 mm 0.20 in5.1 mm
08:50 AM 42.8°F6.0°C 35.4°F1.9°C 75% 3.5 mph SW5.6 kmh SW 4.6 mph7.4 kmh 29.75 in1007.5 mb - 0.00 in0.0 mm 0.20 in5.1 mm
09:00 AM 42.2°F5.7°C 35.2°F1.8°C 76% 3.5 mph SW5.6 kmh SW 5.8 mph9.3 kmh 29.76 in1007.8 mb - 0.00 in0.0 mm 0.20 in5.1 mm
09:10 AM 41.8°F5.4°C 35.1°F1.7°C 77% 2.3 mph SW3.7 kmh SW 8.1 mph13.0 kmh 29.76 in1007.8 mb - 0.00 in0.0 mm 0.20 in5.1 mm
09:20 AM 41.6°F5.3°C 35.2°F1.8°C 78% 4.6 mph SW7.4 kmh SW 6.9 mph11.1 kmh 29.76 in1007.8 mb - 0.00 in0.0 mm 0.20 in5.1 mm
09:30 AM 41.6°F5.3°C 35.2°F1.8°C 78% 1.2 mph SW1.9 kmh SW 4.6 mph7.4 kmh 29.77 in1008.1 mb - 0.01 in0.3 mm 0.21 in5.3 mm
09:40 AM 41.5°F5.3°C 35.5°F1.9°C 79% 2.3 mph NW3.7 kmh NW 2.3 mph3.7 kmh 29.77 in1008.1 mb - 0.00 in0.0 mm 0.21 in5.3 mm
09:50 AM 41.2°F5.1°C 35.2°F1.8°C 79% 2.3 mph SW3.7 kmh SW 4.6 mph7.4 kmh 29.78 in1008.5 mb - 0.00 in0.0 mm 0.21 in5.3 mm
10:00 AM 40.9°F4.9°C 35.2°F1.8°C 80% 2.3 mph SW3.7 kmh SW 4.6 mph7.4 kmh 29.79 in1008.8 mb - 0.00 in0.0 mm 0.21 in5.3 mm
10:10 AM 40.7°F4.8°C 35.0°F1.7°C 80% 2.3 mph WNW3.7 kmh WNW 8.1 mph13.0 kmh 29.79 in1008.8 mb - 0.01 in0.3 mm 0.22 in5.6 mm
10:20 AM 40.4°F4.7°C 35.0°F1.7°C 81% 3.5 mph W5.6 kmh W 10.4 mph16.7 kmh 29.79 in1008.8 mb - 0.00 in0.0 mm 0.22 in5.6 mm
10:30 AM 40.4°F4.7°C 35.0°F1.7°C 81% 3.5 mph SW5.6 kmh SW 10.4 mph16.7 kmh 29.79 in1008.8 mb - 0.00 in0.0 mm 0.22 in5.6 mm
10:40 AM 40.3°F4.6°C 34.9°F1.6°C 81% 3.5 mph SSW5.6 kmh SSW 4.6 mph7.4 kmh 29.79 in1008.8 mb - 0.00 in0.0 mm 0.22 in5.6 mm
10:50 AM 40.1°F4.5°C 34.4°F1.3°C 80% 4.6 mph SW7.4 kmh SW 12.7 mph20.4 kmh 29.80 in1009.1 mb - 0.00 in0.0 mm 0.22 in5.6 mm
11:00 AM 40.0°F4.4°C 34.3°F1.3°C 80% 2.3 mph SW3.7 kmh SW 2.3 mph3.7 kmh 29.80 in1009.1 mb - 0.01 in0.3 mm 0.23 in5.8 mm
11:10 AM 39.9°F4.4°C 34.2°F1.2°C 80% 4.6 mph SW7.4 kmh SW 4.6 mph7.4 kmh 29.81 in1009.5 mb - 0.01 in0.3 mm 0.23 in5.8 mm
11:20 AM 39.8°F4.3°C 34.1°F1.2°C 80% 1.2 mph SSE1.9 kmh SSE 4.6 mph7.4 kmh 29.82 in1009.8 mb - 0.00 in0.0 mm 0.23 in5.8 mm
11:30 AM 39.7°F4.3°C 34.0°F1.1°C 80% 3.5 mph SW5.6 kmh SW 8.1 mph13.0 kmh 29.82 in1009.8 mb - 0.00 in0.0 mm 0.23 in5.8 mm
11:40 AM 39.7°F4.3°C 34.0°F1.1°C 80% 4.6 mph SW7.4 kmh SW 8.1 mph13.0 kmh 29.83 in1010.2 mb - 0.00 in0.0 mm 0.23 in5.8 mm
11:50 AM 39.7°F4.3°C 33.7°F0.9°C 79% 4.6 mph W7.4 kmh W 6.9 mph11.1 kmh 29.83 in1010.2 mb - 0.00 in0.0 mm 0.23 in5.8 mm
12:00 PM 39.6°F4.2°C 33.6°F0.9°C 79% 5.8 mph WSW9.3 kmh WSW 13.8 mph22.2 kmh 29.84 in1010.5 mb - 0.01 in0.3 mm 0.24 in6.1 mm
12:10 PM 39.4°F4.1°C 33.7°F0.9°C 80% 4.6 mph SW7.4 kmh SW 6.9 mph11.1 kmh 29.84 in1010.5 mb - 0.00 in0.0 mm 0.24 in6.1 mm
12:20 PM 39.3°F4.1°C 33.6°F0.9°C 80% 3.5 mph SW5.6 kmh SW 6.9 mph11.1 kmh 29.84 in1010.5 mb - 0.00 in0.0 mm 0.24 in6.1 mm
12:30 PM 39.2°F4.0°C 33.5°F0.8°C 80% 3.5 mph W5.6 kmh W 8.1 mph13.0 kmh 29.85 in1010.8 mb - 0.00 in0.0 mm 0.24 in6.1 mm
12:40 PM 39.1°F3.9°C 33.5°F0.8°C 80% 1.2 mph SW1.9 kmh SW 3.5 mph5.6 kmh 29.85 in1010.8 mb - 0.00 in0.0 mm 0.24 in6.1 mm
12:50 PM 38.9°F3.8°C 33.3°F0.7°C 80% 2.3 mph WSW3.7 kmh WSW 5.8 mph9.3 kmh 29.85 in1010.8 mb - 0.00 in0.0 mm 0.24 in6.1 mm
01:00 PM 38.7°F3.7°C 33.1°F0.6°C 80% 3.5 mph SSW5.6 kmh SSW 8.1 mph13.0 kmh 29.86 in1011.2 mb - 0.00 in0.0 mm 0.24 in6.1 mm
01:10 PM 38.6°F3.7°C 33.0°F0.6°C 80% 3.5 mph WSW5.6 kmh WSW 8.1 mph13.0 kmh 29.85 in1010.8 mb - 0.00 in0.0 mm 0.24 in6.1 mm
01:20 PM 38.4°F3.6°C 32.8°F0.4°C 80% 5.8 mph SW9.3 kmh SW 12.7 mph20.4 kmh 29.86 in1011.2 mb - 0.01 in0.3 mm 0.25 in6.4 mm
01:30 PM 38.4°F3.6°C 32.8°F0.4°C 80% 4.6 mph SW7.4 kmh SW 12.7 mph20.4 kmh 29.85 in1010.8 mb - 0.00 in0.0 mm 0.25 in6.4 mm
01:40 PM 38.3°F3.5°C 32.4°F0.2°C 79% 2.3 mph WSW3.7 kmh WSW 6.9 mph11.1 kmh 29.86 in1011.2 mb - 0.00 in0.0 mm 0.25 in6.4 mm
01:50 PM 38.3°F3.5°C 32.4°F0.2°C 79% 3.5 mph WNW5.6 kmh WNW 8.1 mph13.0 kmh 29.85 in1010.8 mb - 0.00 in0.0 mm 0.25 in6.4 mm
02:00 PM 38.3°F3.5°C 32.4°F0.2°C 79% 3.5 mph WSW5.6 kmh WSW 8.1 mph13.0 kmh 29.86 in1011.2 mb - 0.00 in0.0 mm 0.25 in6.4 mm
02:10 PM 38.6°F3.7°C 32.3°F0.2°C 78% 2.3 mph WSW3.7 kmh WSW 5.8 mph9.3 kmh 29.86 in1011.2 mb - 0.00 in0.0 mm 0.25 in6.4 mm
02:20 PM 38.6°F3.7°C 32.0°F0.0°C 77% 2.3 mph NW3.7 kmh NW 9.2 mph14.8 kmh 29.86 in1011.2 mb - 0.00 in0.0 mm 0.25 in6.4 mm
02:30 PM 38.5°F3.6°C 31.3°F-0.4°C 75% 2.3 mph SW3.7 kmh SW 4.6 mph7.4 kmh 29.86 in1011.2 mb - 0.00 in0.0 mm 0.25 in6.4 mm
02:40 PM 38.5°F3.6°C 31.3°F-0.4°C 75% 1.2 mph SSW1.9 kmh SSW 1.2 mph1.9 kmh 29.86 in1011.2 mb - 0.00 in0.0 mm 0.25 in6.4 mm
02:50 PM 38.5°F3.6°C 30.9°F-0.6°C 74% 2.3 mph W3.7 kmh W 3.5 mph5.6 kmh 29.85 in1010.8 mb - 0.00 in0.0 mm 0.25 in6.4 mm
03:00 PM 38.5°F3.6°C 30.6°F-0.8°C 73% 5.8 mph WSW9.3 kmh WSW 8.1 mph13.0 kmh 29.86 in1011.2 mb - 0.00 in0.0 mm 0.25 in6.4 mm
03:10 PM 38.2°F3.4°C 29.6°F-1.3°C 71% 4.6 mph SW7.4 kmh SW 5.8 mph9.3 kmh 29.86 in1011.2 mb - 0.00 in0.0 mm 0.25 in6.4 mm
03:20 PM 37.9°F3.3°C 29.3°F-1.5°C 71% 3.5 mph WSW5.6 kmh WSW 8.1 mph13.0 kmh 29.86 in1011.2 mb - 0.00 in0.0 mm 0.25 in6.4 mm
03:30 PM 37.9°F3.3°C 28.6°F-1.9°C 69% 6.9 mph W11.1 kmh W 12.7 mph20.4 kmh 29.86 in1011.2 mb - 0.00 in0.0 mm 0.25 in6.4 mm
03:40 PM 37.7°F3.2°C 28.4°F-2.0°C 69% 3.5 mph SW5.6 kmh SW 5.8 mph9.3 kmh 29.87 in1011.5 mb - 0.00 in0.0 mm 0.25 in6.4 mm
03:50 PM 37.7°F3.2°C 28.1°F-2.2°C 68% 5.8 mph SSW9.3 kmh SSW 6.9 mph11.1 kmh 29.86 in1011.2 mb - 0.00 in0.0 mm 0.25 in6.4 mm
04:00 PM 37.6°F3.1°C 28.0°F-2.2°C 68% 2.3 mph SSW3.7 kmh SSW 5.8 mph9.3 kmh 29.87 in1011.5 mb - 0.00 in0.0 mm 0.25 in6.4 mm
04:10 PM 37.6°F3.1°C 28.0°F-2.2°C 68% 4.6 mph SW7.4 kmh SW 6.9 mph11.1 kmh 29.88 in1011.9 mb - 0.00 in0.0 mm 0.25 in6.4 mm
04:20 PM 37.6°F3.1°C 28.0°F-2.2°C 68% 3.5 mph SW5.6 kmh SW 6.9 mph11.1 kmh 29.88 in1011.9 mb - 0.00 in0.0 mm 0.25 in6.4 mm
04:30 PM 37.5°F3.1°C 27.9°F-2.3°C 68% 4.6 mph WSW7.4 kmh WSW 10.4 mph16.7 kmh 29.89 in1012.2 mb - 0.00 in0.0 mm 0.25 in6.4 mm
04:40 PM 37.5°F3.1°C 28.6°F-1.9°C 70% 3.5 mph SW5.6 kmh SW 8.1 mph13.0 kmh 29.89 in1012.2 mb - 0.00 in0.0 mm 0.25 in6.4 mm
04:50 PM 37.3°F2.9°C 28.8°F-1.8°C 71% 4.6 mph SW7.4 kmh SW 10.4 mph16.7 kmh 29.89 in1012.2 mb - 0.00 in0.0 mm 0.25 in6.4 mm
05:00 PM 37.2°F2.9°C 28.3°F-2.1°C 70% 3.5 mph S5.6 kmh S 8.1 mph13.0 kmh 29.90 in1012.5 mb - 0.00 in0.0 mm 0.25 in6.4 mm
05:10 PM 37.2°F2.9°C 28.7°F-1.8°C 71% 4.6 mph SW7.4 kmh SW 8.1 mph13.0 kmh 29.90 in1012.5 mb - 0.00 in0.0 mm 0.25 in6.4 mm
05:20 PM 37.1°F2.8°C 28.9°F-1.7°C 72% 4.6 mph SW7.4 kmh SW 5.8 mph9.3 kmh 29.90 in1012.5 mb - 0.00 in0.0 mm 0.25 in6.4 mm
05:30 PM 37.1°F2.8°C 29.2°F-1.6°C 73% 3.5 mph SW5.6 kmh SW 5.8 mph9.3 kmh 29.90 in1012.5 mb - 0.00 in0.0 mm 0.25 in6.4 mm
05:40 PM 37.0°F2.8°C 29.5°F-1.4°C 74% 4.6 mph SW7.4 kmh SW 9.2 mph14.8 kmh 29.91 in1012.9 mb - 0.00 in0.0 mm 0.25 in6.4 mm
05:50 PM 37.0°F2.8°C 29.5°F-1.4°C 74% 4.6 mph SW7.4 kmh SW 5.8 mph9.3 kmh 29.91 in1012.9 mb - 0.00 in0.0 mm 0.25 in6.4 mm
06:00 PM 36.9°F2.7°C 29.7°F-1.3°C 75% 3.5 mph SW5.6 kmh SW 6.9 mph11.1 kmh 29.91 in1012.9 mb - 0.00 in0.0 mm 0.25 in6.4 mm
06:10 PM 36.6°F2.6°C 29.4°F-1.4°C 75% 3.5 mph WSW5.6 kmh WSW 6.9 mph11.1 kmh 29.91 in1012.9 mb - 0.00 in0.0 mm 0.25 in6.4 mm
06:20 PM 36.4°F2.4°C 29.2°F-1.6°C 75% 4.6 mph SW7.4 kmh SW 6.9 mph11.1 kmh 29.92 in1013.2 mb - 0.00 in0.0 mm 0.25 in6.4 mm
06:30 PM 36.3°F2.4°C 28.8°F-1.8°C 74% 2.3 mph SSW3.7 kmh SSW 3.5 mph5.6 kmh 29.92 in1013.2 mb - 0.00 in0.0 mm 0.25 in6.4 mm
06:40 PM 36.3°F2.4°C 28.8°F-1.8°C 74% 4.6 mph SSW7.4 kmh SSW 6.9 mph11.1 kmh 29.92 in1013.2 mb - 0.00 in0.0 mm 0.25 in6.4 mm
06:50 PM 36.1°F2.3°C 28.6°F-1.9°C 74% 3.5 mph S5.6 kmh S 4.6 mph7.4 kmh 29.93 in1013.5 mb - 0.00 in0.0 mm 0.25 in6.4 mm
07:00 PM 35.8°F2.1°C 28.3°F-2.1°C 74% 2.3 mph SSW3.7 kmh SSW 4.6 mph7.4 kmh 29.93 in1013.5 mb - 0.00 in0.0 mm 0.25 in6.4 mm
07:10 PM 35.6°F2.0°C 28.1°F-2.2°C 74% 3.5 mph S5.6 kmh S 4.6 mph7.4 kmh 29.93 in1013.5 mb - 0.00 in0.0 mm 0.25 in6.4 mm
07:20 PM 35.6°F2.0°C 27.8°F-2.3°C 73% 3.5 mph SSW5.6 kmh SSW 6.9 mph11.1 kmh 29.94 in1013.9 mb - 0.00 in0.0 mm 0.25 in6.4 mm
07:30 PM 35.6°F2.0°C 27.8°F-2.3°C 73% 3.5 mph SSW5.6 kmh SSW 10.4 mph16.7 kmh 29.94 in1013.9 mb - 0.00 in0.0 mm 0.25 in6.4 mm
07:40 PM 35.7°F2.1°C 27.9°F-2.3°C 73% 2.3 mph S3.7 kmh S 6.9 mph11.1 kmh 29.94 in1013.9 mb - 0.00 in0.0 mm 0.25 in6.4 mm
07:50 PM 35.6°F2.0°C 27.5°F-2.5°C 72% 5.8 mph SW9.3 kmh SW 11.5 mph18.5 kmh 29.95 in1014.2 mb - 0.00 in0.0 mm 0.25 in6.4 mm
08:00 PM 35.7°F2.1°C 27.6°F-2.4°C 72% 1.2 mph SW1.9 kmh SW 4.6 mph7.4 kmh 29.95 in1014.2 mb - 0.00 in0.0 mm 0.25 in6.4 mm
08:10 PM 35.5°F1.9°C 27.4°F-2.6°C 72% 2.3 mph SW3.7 kmh SW 3.5 mph5.6 kmh 29.95 in1014.2 mb - 0.00 in0.0 mm 0.25 in6.4 mm
08:20 PM 35.2°F1.8°C 27.4°F-2.6°C 73% 3.5 mph SW5.6 kmh SW 5.8 mph9.3 kmh 29.95 in1014.2 mb - 0.00 in0.0 mm 0.25 in6.4 mm
08:30 PM 35.2°F1.8°C 27.1°F-2.7°C 72% 2.3 mph S3.7 kmh S 5.8 mph9.3 kmh 29.96 in1014.6 mb - 0.00 in0.0 mm 0.25 in6.4 mm
08:40 PM 35.2°F1.8°C 27.1°F-2.7°C 72% 2.3 mph SSW3.7 kmh SSW 5.8 mph9.3 kmh 29.96 in1014.6 mb - 0.00 in0.0 mm 0.25 in6.4 mm
08:50 PM 35.3°F1.8°C 27.2°F-2.7°C 72% 3.5 mph S5.6 kmh S 5.8 mph9.3 kmh 29.96 in1014.6 mb - 0.00 in0.0 mm 0.25 in6.4 mm
09:00 PM 35.3°F1.8°C 27.2°F-2.7°C 72% 3.5 mph SSW5.6 kmh SSW 11.5 mph18.5 kmh 29.96 in1014.6 mb - 0.00 in0.0 mm 0.25 in6.4 mm
09:10 PM 35.2°F1.8°C 27.1°F-2.7°C 72% 3.5 mph SW5.6 kmh SW 8.1 mph13.0 kmh 29.97 in1014.9 mb - 0.00 in0.0 mm 0.25 in6.4 mm
09:20 PM 35.2°F1.8°C 27.1°F-2.7°C 72% 4.6 mph S7.4 kmh S 6.9 mph11.1 kmh 29.97 in1014.9 mb - 0.00 in0.0 mm 0.25 in6.4 mm
09:30 PM 35.0°F1.7°C 26.9°F-2.8°C 72% 2.3 mph SW3.7 kmh SW 4.6 mph7.4 kmh 29.97 in1014.9 mb - 0.00 in0.0 mm 0.25 in6.4 mm
09:40 PM 34.9°F1.6°C 26.8°F-2.9°C 72% 3.5 mph SW5.6 kmh SW 9.2 mph14.8 kmh 29.98 in1015.2 mb - 0.00 in0.0 mm 0.25 in6.4 mm
09:50 PM 34.9°F1.6°C 26.8°F-2.9°C 72% 1.2 mph WSW1.9 kmh WSW 2.3 mph3.7 kmh 29.98 in1015.2 mb - 0.01 in0.3 mm 0.26 in6.6 mm
10:00 PM 34.8°F1.6°C 26.7°F-2.9°C 72% 2.3 mph SW3.7 kmh SW 6.9 mph11.1 kmh 29.98 in1015.2 mb - 0.00 in0.0 mm 0.26 in6.6 mm
10:10 PM 35.3°F1.8°C 27.8°F-2.3°C 74% 3.5 mph SW5.6 kmh SW 4.6 mph7.4 kmh 29.99 in1015.6 mb - 0.00 in0.0 mm 0.26 in6.6 mm
10:20 PM 35.3°F1.8°C 29.8°F-1.2°C 80% 2.3 mph W3.7 kmh W 2.3 mph3.7 kmh 30.00 in1015.9 mb - 0.00 in0.0 mm 0.26 in6.6 mm
10:30 PM 34.3°F1.3°C 29.7°F-1.3°C 83% 1.2 mph SE1.9 kmh SE 3.5 mph5.6 kmh 30.01 in1016.3 mb - 0.00 in0.0 mm 0.26 in6.6 mm
10:40 PM 33.3°F0.7°C 29.3°F-1.5°C 85% 1.2 mph NE1.9 kmh NE 2.3 mph3.7 kmh 30.02 in1016.6 mb - 0.00 in0.0 mm 0.26 in6.6 mm
10:50 PM 32.9°F0.5°C 28.9°F-1.7°C 85% 1.2 mph NNE1.9 kmh NNE 2.3 mph3.7 kmh 30.03 in1016.9 mb - 0.00 in0.0 mm 0.26 in6.6 mm
11:00 PM 32.8°F0.4°C 28.8°F-1.8°C 85% Calm Calm -- 30.03 in1016.9 mb - 0.00 in0.0 mm 0.26 in6.6 mm
11:10 PM 32.8°F0.4°C 29.1°F-1.6°C 86% Calm Calm 1.2 mph1.9 kmh 30.04 in1017.3 mb - 0.00 in0.0 mm 0.26 in6.6 mm
11:20 PM 32.5°F0.3°C 28.8°F-1.8°C 86% 1.2 mph SE1.9 kmh SE 2.3 mph3.7 kmh 30.04 in1017.3 mb - 0.00 in0.0 mm 0.26 in6.6 mm
11:30 PM 32.0°F0.0°C 28.0°F-2.2°C 85% Calm Calm 1.2 mph1.9 kmh 30.05 in1017.6 mb - 0.00 in0.0 mm 0.26 in6.6 mm
11:40 PM 31.6°F-0.2°C 27.9°F-2.3°C 86% 1.2 mph W1.9 kmh W 3.5 mph5.6 kmh 30.05 in1017.6 mb - 0.00 in0.0 mm 0.26 in6.6 mm
11:50 PM 31.1°F-0.5°C 27.4°F-2.6°C 86% 1.2 mph W1.9 kmh W 2.3 mph3.7 kmh 30.05 in1017.6 mb - 0.00 in0.0 mm 0.26 in6.6 mm